Time;durP1;ratioP1;P1;durP2;ratioP2;P2;SDS_P1;SDS_P2;PMS_P1;PMS_P2;Temp;Humidity;BMP_temperature;BMP_pressure;BME280_temperature;BME280_humidity;BME280_pressure;Samples;Min_cycle;Max_cycle;Signal;HPM_P1;HPM_P2
2022/03/17 00:03:04;;;;;;;38.73;26.75;;;;;;;13.69;34.58;101701.58;1861228;104;25876;-83
2022/03/17 00:06:46;;;;;;;39.78;26.25;;;;;;;13.63;34.57;101704.87;1913378;101;26049;-85
2022/03/17 00:10:22;;;;;;;47.20;27.02;;;;;;;13.59;34.58;101706.94;1940387;100;25799;-86
2022/03/17 00:14:43;;;;;;;38.53;25.50;;;;;;;13.56;34.59;101714.70;1937634;100;25925;-85
2022/03/17 00:18:43;;;;;;;38.28;26.07;;;;;;;13.54;34.56;101707.23;1939127;100;25853;-83
2022/03/17 00:22:22;;;;;;;40.08;26.42;;;;;;;13.49;34.57;101714.45;1906524;100;25903;-83
2022/03/17 00:29:38;;;;;;;43.68;26.07;;;;;;;13.39;34.58;101729.86;1789654;107;26171;-86
2022/03/17 00:33:24;;;;;;;39.90;25.85;;;;;;;13.34;34.59;101728.83;1791074;109;25980;-85
2022/03/17 00:37:04;;;;;;;40.38;24.47;;;;;;;13.30;34.62;101720.83;1791153;107;26003;-83
2022/03/17 00:40:33;;;;;;;40.10;25.75;;;;;;;13.26;34.65;101719.80;1791468;109;25851;-84
2022/03/17 00:44:07;;;;;;;37.30;25.37;;;;;;;13.22;34.66;101722.70;1823821;106;25951;-85
2022/03/17 00:47:28;;;;;;;38.83;25.35;;;;;;;13.19;34.68;101725.22;1835554;105;25852;-87
2022/03/17 00:50:57;;;;;;;41.23;26.73;;;;;;;13.16;34.69;101724.22;1836079;106;26112;-83
2022/03/17 00:54:29;;;;;;;45.65;29.95;;;;;;;13.12;34.71;101722.34;1836320;106;25952;-83
2022/03/17 01:06:02;;;;;;;36.98;24.67;;;;;;;13.00;34.80;101719.78;1828065;105;25836;-85
2022/03/17 01:09:28;;;;;;;46.15;28.57;;;;;;;12.97;34.81;101717.47;1797854;107;25942;-83
2022/03/17 01:20:52;;;;;;;40.90;25.25;;;;;;;12.84;34.89;101721.37;1931928;101;26389;-84
2022/03/17 01:24:47;;;;;;;36.25;24.75;;;;;;;12.80;34.91;101726.03;1921916;101;25877;-83
2022/03/17 01:28:20;;;;;;;37.03;24.85;;;;;;;12.78;34.95;101730.73;1881040;102;25851;-84
2022/03/17 01:31:52;;;;;;;34.67;24.10;;;;;;;12.75;34.98;101729.77;1930885;98;25811;-82
2022/03/17 01:35:18;;;;;;;36.35;24.98;;;;;;;12.73;34.98;101727.96;2008596;96;25706;-86
2022/03/17 01:39:01;;;;;;;38.48;24.65;;;;;;;12.69;35.00;101732.59;2008153;98;25519;-84
2022/03/17 01:46:15;;;;;;;37.05;23.35;;;;;;;12.62;35.07;101728.88;1856672;104;25845;-83
2022/03/17 01:49:56;;;;;;;42.83;24.18;;;;;;;12.60;35.12;101736.19;1865719;104;25365;-86
2022/03/17 01:53:39;;;;;;;37.25;25.35;;;;;;;12.56;35.12;101737.81;1865726;103;25723;-83
2022/03/17 01:57:08;;;;;;;41.00;24.52;;;;;;;12.55;35.15;101739.04;1891468;101;25642;-83
2022/03/17 02:01:05;;;;;;;36.53;23.05;;;;;;;12.52;35.17;101736.80;1862806;103;25849;-83
2022/03/17 02:04:53;;;;;;;;;;;;;;;;;;;;;
2022/03/17 02:08:39;;;;;;;35.45;23.98;;;;;;;12.44;35.22;101746.07;1810818;107;25832;-84
2022/03/17 02:16:10;;;;;;;34.60;23.73;;;;;;;12.38;35.32;101744.95;1748184;111;26146;-83
2022/03/17 02:19:47;;;;;;;38.50;22.98;;;;;;;12.34;35.35;101745.25;1803998;108;25895;-83
2022/03/17 02:27:06;;;;;;;34.55;23.02;;;;;;;12.29;35.38;101748.13;1777958;109;25902;-83
2022/03/17 02:31:16;;;;;;;;;;;;;;;;;;;;;
2022/03/17 02:34:38;;;;;;;39.10;23.38;;;;;;;12.23;35.45;101771.41;1711868;114;25884;-84
2022/03/17 02:38:43;;;;;;;39.60;22.82;;;;;;;12.19;35.45;101765.59;1725527;112;25936;-83
2022/03/17 02:42:10;;;;;;;41.37;23.60;;;;;;;12.16;35.50;101771.59;1779224;109;25887;-83
2022/03/17 02:46:08;;;;;;;34.98;23.77;;;;;;;12.13;35.53;101770.58;1789282;110;25968;-83
2022/03/17 02:49:47;;;;;;;;;;;;;;;;;;;;;
2022/03/17 02:53:18;;;;;;;33.33;22.62;;;;;;;12.07;35.57;101769.02;1803991;105;26626;-83
2022/03/17 02:56:58;;;;;;;;;;;;;;;;;;;;;
2022/03/17 03:00:32;;;;;;;42.55;22.27;;;;;;;12.00;35.62;101775.73;1834295;104;25811;-83
2022/03/17 03:13:33;;;;;;;34.03;23.25;;;;;;;11.90;35.69;101778.80;1780810;108;25948;-84
2022/03/17 03:17:00;;;;;;;35.40;22.35;;;;;;;11.85;35.74;101783.85;1782921;109;25852;-84
2022/03/17 03:20:43;;;;;;;30.45;20.82;;;;;;;11.80;35.77;101784.92;1778017;109;25885;-84
2022/03/17 03:24:25;;;;;;;34.43;22.10;;;;;;;11.77;35.81;101792.63;1815537;107;26551;-85
2022/03/17 03:28:29;;;;;;;30.57;20.55;;;;;;;11.74;35.84;101796.41;1834829;107;25620;-84
2022/03/17 03:32:11;;;;;;;31.17;21.27;;;;;;;11.71;35.85;101797.62;1836340;106;25985;-85
2022/03/17 03:39:35;;;;;;;34.30;21.52;;;;;;;11.64;35.94;101807.73;1850460;103;25868;-84
2022/03/17 03:43:15;;;;;;;31.90;21.55;;;;;;;11.60;35.97;101809.32;1849487;106;25917;-84
2022/03/17 03:47:05;;;;;;;31.30;20.57;;;;;;;11.59;36.01;101814.08;1859420;105;25935;-86
2022/03/17 03:50:33;;;;;;;28.98;20.50;;;;;;;11.56;36.03;101813.95;1845068;105;25877;-84
2022/03/17 03:57:55;;;;;;;33.73;21.75;;;;;;;11.48;36.09;101829.72;1859345;102;26351;-84
2022/03/17 04:01:30;;;;;;;31.15;20.62;;;;;;;11.45;36.13;101831.78;1860445;105;25833;-85
2022/03/17 04:04:55;;;;;;;35.17;20.45;;;;;;;11.43;36.17;101837.75;1918007;101;26053;-85
2022/03/17 04:08:42;;;;;;;;;;;;;;;;;;;;;
2022/03/17 04:11:55;;;;;;;28.40;20.68;;;;;;;11.37;36.23;101842.28;1885487;103;25872;-84
2022/03/17 04:15:26;;;;;;;29.77;19.67;;;;;;;11.34;36.25;101848.70;1892693;104;25966;-84
2022/03/17 04:18:56;;;;;;;34.60;20.48;;;;;;;11.31;36.28;101853.80;1950569;101;26099;-85
2022/03/17 04:22:28;;;;;;;37.15;22.20;;;;;;;11.28;36.31;101861.48;1949905;99;26258;-84
2022/03/17 04:25:49;;;;;;;30.02;21.68;;;;;;;11.23;36.34;101867.78;1950646;101;25822;-84
2022/03/17 04:29:12;;;;;;;32.23;21.30;;;;;;;11.19;36.40;101867.17;1950432;100;25838;-83
2022/03/17 04:33:26;;;;;;;29.87;20.37;;;;;;;11.17;36.43;101871.84;1950548;100;25899;-84
2022/03/17 04:36:56;;;;;;;30.20;19.12;;;;;;;11.14;36.45;101871.70;1915085;101;25812;-85
2022/03/17 04:40:35;;;;;;;30.35;19.55;;;;;;;11.11;36.51;101865.95;1905582;100;31030;-84
2022/03/17 04:43:56;;;;;;;;;;;;;;;11.09;36.52;101875.42;1962367;99;25866;-85
2022/03/17 04:47:24;;;;;;;31.53;19.47;;;;;;;11.08;36.55;101885.39;1960735;99;34867;-84
2022/03/17 04:55:18;;;;;;;32.65;20.23;;;;;;;11.02;36.58;101889.02;1950092;99;25833;-84
2022/03/17 04:58:50;;;;;;;34.23;20.60;;;;;;;11.01;36.60;101889.43;1932055;98;25878;-83
2022/03/17 05:02:26;;;;;;;31.42;20.77;;;;;;;11.00;36.64;101894.56;1956512;99;25896;-84
2022/03/17 05:05:53;;;;;;;28.42;19.90;;;;;;;10.99;36.63;101898.00;1920672;101;25896;-84
2022/03/17 05:09:43;;;;;;;35.20;20.17;;;;;;;11.00;36.64;101903.70;1867313;104;25863;-83
2022/03/17 05:17:06;;;;;;;30.37;20.20;;;;;;;10.98;36.68;101901.45;1761704;110;26439;-84
2022/03/17 05:20:56;;;;;;;25.35;19.52;;;;;;;10.97;36.68;101904.48;1749233;109;25875;-85
2022/03/17 05:24:30;;;;;;;27.05;18.85;;;;;;;10.98;36.69;101900.14;1738220;111;25817;-86
2022/03/17 05:28:08;;;;;;;;;;;;;;;;;;;;;
2022/03/17 05:31:27;;;;;;;28.65;19.73;;;;;;;11.02;36.69;101903.38;1696710;111;25954;-86
2022/03/17 05:35:10;;;;;;;28.92;18.45;;;;;;;11.03;36.68;101907.34;1726896;113;26076;-86
2022/03/17 05:38:52;;;;;;;29.30;19.92;;;;;;;11.06;36.73;101915.31;1724674;113;25913;-84
2022/03/17 05:42:15;;;;;;;32.58;19.60;;;;;;;11.08;36.72;101916.29;1721191;113;26103;-85
2022/03/17 05:46:25;;;;;;;;;;;;;;;;;;;;;
2022/03/17 05:49:44;;;;;;;;;;;;;;;11.11;36.80;101925.98;1762790;110;25927;-88
2022/03/17 05:57:18;;;;;;;29.75;18.60;;;;;;;11.18;36.82;101937.61;1788159;110;25925;-87
2022/03/17 06:01:04;;;;;;;34.67;20.17;;;;;;;11.21;36.92;101945.16;1807948;101;26486;-87
2022/03/17 06:08:04;;;;;;;31.23;20.05;;;;;;;11.31;36.97;101954.31;1869981;100;25832;-84
2022/03/17 06:11:58;;;;;;;33.55;19.55;;;;;;;11.35;36.99;101954.52;1935658;100;25778;-87
2022/03/17 06:15:30;;;;;;;30.27;19.67;;;;;;;11.39;37.03;101958.57;1891970;100;25445;-84
2022/03/17 06:19:14;;;;;;;30.27;19.98;;;;;;;11.45;37.11;101960.16;1898272;103;25837;-86
2022/03/17 06:26:29;;;;;;;30.02;19.95;;;;;;;11.57;37.16;101957.66;1908690;103;25863;-85
2022/03/17 06:29:58;;;;;;;30.60;19.62;;;;;;;11.63;37.01;101953.14;1896364;102;25776;-84
2022/03/17 06:33:26;;;;;;;31.90;19.52;;;;;;;11.68;37.07;101954.67;1880929;102;25888;-83
2022/03/17 06:36:55;;;;;;;31.25;20.55;;;;;;;11.74;37.08;101955.80;1895892;102;25839;-85
2022/03/17 06:40:43;;;;;;;;;;;;;;;;;;;;;
2022/03/17 06:44:42;;;;;;;30.17;20.60;;;;;;;11.86;37.03;101972.48;1974510;99;25902;-80
2022/03/17 06:48:05;;;;;;;35.65;20.32;;;;;;;11.96;37.00;101971.17;1993981;98;25953;-83
2022/03/17 06:51:28;;;;;;;35.20;20.27;;;;;;;12.01;36.97;101974.47;1969669;99;25844;-85
2022/03/17 06:55:31;;;;;;;33.95;20.65;;;;;;;12.10;36.87;101980.48;2006716;98;26009;-86
2022/03/17 06:59:16;;;;;;;34.30;19.85;;;;;;;12.16;36.86;101974.64;1990307;97;26293;-84
2022/03/17 07:02:54;;;;;;;31.57;20.57;;;;;;;12.24;36.85;101981.07;1978995;99;25824;-85
2022/03/17 07:06:30;;;;;;;31.10;20.85;;;;;;;12.33;36.73;101988.42;1967279;98;26163;-84
2022/03/17 07:10:15;;;;;;;31.65;20.62;;;;;;;12.41;36.67;101990.94;1957624;101;25830;-85
2022/03/17 07:13:50;;;;;;;31.23;20.60;;;;;;;12.51;36.57;101997.91;1958907;99;25890;-80
2022/03/17 07:17:34;;;;;;;28.42;19.73;;;;;;;12.63;36.46;101998.86;1964770;99;25802;-82
2022/03/17 07:21:14;;;;;;;;;;;;;;;;;;;;;
2022/03/17 07:24:44;;;;;;;28.35;20.10;;;;;;;12.81;36.30;101997.39;1965119;98;25954;-79
2022/03/17 07:28:46;;;;;;;27.93;19.32;;;;;;;12.93;36.13;101999.20;2012254;96;25868;-77
2022/03/17 07:32:18;;;;;;;28.45;20.72;;;;;;;13.04;36.00;102007.47;1983339;98;25795;-79
2022/03/17 07:35:44;;;;;;;33.38;21.35;;;;;;;14.22;35.83;102006.64;2002248;96;25755;-81
2022/03/17 07:39:42;;;;;;;;;;;;;;;;;;;;;
2022/03/17 07:43:04;;;;;;;27.35;20.08;;;;;;;19.86;31.11;102015.89;1999075;98;25957;-82
2022/03/17 07:46:51;;;;;;;28.98;18.70;;;;;;;22.15;28.78;102031.67;1938721;98;25820;-81
2022/03/17 07:50:32;;;;;;;22.60;18.40;;;;;;;23.89;26.83;102046.53;1943788;100;25881;-81
2022/03/17 07:54:36;;;;;;;20.52;17.40;;;;;;;25.54;25.13;102048.75;1863905;105;25890;-81
2022/03/17 07:58:33;;;;;;;26.55;19.32;;;;;;;26.95;23.67;102056.95;1876848;105;25937;-88
2022/03/17 08:05:58;;;;;;;18.23;16.27;;;;;;;29.43;21.62;102081.33;1747897;111;26018;-82
2022/03/17 08:09:43;;;;;;;22.32;15.95;;;;;;;30.45;20.74;102077.37;1775878;110;25778;-84
2022/03/17 08:13:29;;;;;;;15.98;14.45;;;;;;;31.39;19.94;102080.94;1767007;110;25797;-81
2022/03/17 08:17:09;;;;;;;;;;;;;;;;;;;;;
2022/03/17 08:21:13;;;;;;;18.10;12.63;;;;;;;32.90;18.79;102091.11;1736766;111;25811;-81
2022/03/17 08:24:47;;;;;;;14.58;12.18;;;;;;;33.70;18.71;102102.97;1714369;111;25854;-80
2022/03/17 08:28:43;;;;;;;;;;;;;;;;;;;;;
2022/03/17 08:32:41;;;;;;;14.30;12.40;;;;;;;35.14;17.73;102108.13;1630074;120;26000;-84
2022/03/17 08:36:30;;;;;;;17.27;11.60;;;;;;;35.71;17.24;102114.13;1676847;113;25975;-83
2022/03/17 08:40:10;;;;;;;15.70;11.05;;;;;;;36.25;16.89;102118.80;1745953;110;25894;-82
2022/03/17 08:51:33;;;;;;;11.90;10.68;;;;;;;37.65;15.74;102126.29;1672746;115;25993;-81
2022/03/17 08:55:09;;;;;;;11.15;10.10;;;;;;;38.04;15.42;102120.17;1623781;117;26109;-81
2022/03/17 08:58:57;;;;;;;12.30;10.82;;;;;;;38.34;15.19;102118.23;1675631;116;25905;-83
2022/03/17 09:02:50;;;;;;;;;;;;;;;;;;;;;
2022/03/17 09:06:27;;;;;;;11.10;10.03;;;;;;;39.06;14.74;102118.86;1698332;110;25844;-81
2022/03/17 09:10:10;;;;;;;11.78;10.13;;;;;;;39.27;14.61;102126.05;1704546;113;25827;-81
2022/03/17 09:14:04;;;;;;;12.43;9.08;;;;;;;39.49;14.49;102119.92;1703658;113;26605;-84
2022/03/17 09:17:29;;;;;;;29.07;16.73;;;;;;;39.78;14.36;102123.33;1727240;111;25961;-74
2022/03/17 09:20:59;;;;;;;24.10;16.95;;;;;;;38.94;11.95;102113.25;1751253;111;25964;-74
2022/03/17 09:24:20;;;;;;;22.35;15.43;;;;;;;36.32;11.49;102107.98;1779468;108;25992;-74
2022/03/17 09:27:44;;;;;;;20.97;16.27;;;;;;;34.72;12.19;102111.56;1806379;109;25910;-73
2022/03/17 09:31:05;;;;;;;19.37;15.90;;;;;;;33.31;12.37;102105.14;1827802;106;25888;-72
2022/03/17 09:34:27;;;;;;;21.33;16.17;;;;;;;32.08;12.92;102098.56;1830077;106;26195;-74
2022/03/17 09:37:49;;;;;;;18.50;16.52;;;;;;;30.64;12.87;102107.24;1829917;106;25986;-74
2022/03/17 09:45:07;;;;;;;20.27;15.88;;;;;;;26.62;15.09;102094.52;2035749;93;25532;-75
2022/03/17 09:48:38;;;;;;;21.40;16.97;;;;;;;25.50;16.19;102085.75;2093880;93;25960;-74
2022/03/17 09:52:04;;;;;;;21.90;16.35;;;;;;;25.58;16.71;102087.87;2079978;93;25795;-77
2022/03/17 09:55:24;;;;;;;28.70;16.93;;;;;;;25.01;16.89;102093.80;2106591;92;25824;-76
2022/03/17 09:58:48;;;;;;;29.23;16.80;;;;;;;24.09;17.52;102093.06;2112655;93;25749;-85
2022/03/17 10:02:27;;;;;;;26.00;17.05;;;;;;;24.07;17.68;102096.66;2141115;92;26025;-78
2022/03/17 10:05:57;;;;;;;20.60;16.60;;;;;;;22.46;18.84;102087.09;2141244;92;25849;-74
2022/03/17 10:09:34;;;;;;;27.27;17.17;;;;;;;21.70;19.64;102083.73;2144831;92;25816;-75
2022/03/17 10:13:32;;;;;;;23.95;17.27;;;;;;;21.46;19.90;102080.48;2125492;92;25958;-84
2022/03/17 10:16:53;;;;;;;19.87;17.42;;;;;;;20.92;20.38;102072.16;2052568;94;26390;-74
2022/03/17 10:20:34;;;;;;;27.40;16.73;;;;;;;21.37;20.62;102080.45;2068301;94;26061;-74
2022/03/17 10:24:07;;;;;;;23.95;15.95;;;;;;;21.27;20.50;102070.63;2068272;94;25798;-75
2022/03/17 10:27:41;;;;;;;19.50;16.23;;;;;;;21.56;20.27;102065.05;2068398;94;25738;-75
2022/03/17 10:31:11;;;;;;;26.65;16.90;;;;;;;21.88;20.30;102072.30;2058183;96;25745;-74
2022/03/17 10:35:02;;;;;;;18.23;14.93;;;;;;;22.30;20.24;102062.24;2058535;96;26010;-74
2022/03/17 10:38:28;;;;;;;20.90;14.33;;;;;;;22.86;19.67;102065.39;2040141;96;25730;-75
2022/03/17 10:42:27;;;;;;;22.22;14.80;;;;;;;22.76;19.24;102063.63;2057269;94;25847;-75
2022/03/17 10:46:15;;;;;;;19.40;14.23;;;;;;;23.08;19.76;102061.41;2014642;96;25778;-82
2022/03/17 10:50:20;;;;;;;19.37;13.65;;;;;;;23.10;18.84;102075.61;1964116;100;25671;-88
2022/03/17 10:54:03;;;;;;;14.50;13.00;;;;;;;22.76;19.39;102061.42;1989872;97;25522;-77
2022/03/17 10:57:36;;;;;;;18.37;14.18;;;;;;;23.07;19.13;102065.84;1967840;99;25805;-76
2022/03/17 11:00:57;;;;;;;24.00;14.95;;;;;;;21.98;19.36;102056.83;1945367;100;25829;-77
2022/03/17 11:04:21;;;;;;;15.60;13.98;;;;;;;21.39;20.15;102058.33;1972934;98;25865;-76
2022/03/17 11:07:55;;;;;;;15.83;14.25;;;;;;;20.40;20.55;102058.39;1961854;97;25854;-75
2022/03/17 11:11:19;;;;;;;18.07;14.43;;;;;;;20.55;20.91;102044.86;1948112;98;25824;-75
2022/03/17 11:14:53;;;;;;;19.00;12.75;;;;;;;21.37;20.93;102046.84;1947639;98;25806;-75
2022/03/17 11:18:21;;;;;;;15.03;11.60;;;;;;;21.14;20.41;102043.13;2004522;96;25846;-74
2022/03/17 11:21:48;;;;;;;15.53;12.13;;;;;;;20.40;20.92;102037.20;2027160;92;26004;-75
2022/03/17 11:25:29;;;;;;;19.42;12.75;;;;;;;20.64;20.97;102033.91;2043387;94;25362;-76
2022/03/17 11:29:06;;;;;;;16.52;12.37;;;;;;;20.46;20.92;102033.28;2068573;95;25842;-74
2022/03/17 11:32:30;;;;;;;14.33;12.00;;;;;;;19.98;21.36;102029.69;2069195;94;25945;-74
2022/03/17 11:36:27;;;;;;;19.30;13.25;;;;;;;19.71;21.60;102043.08;2068728;95;25823;-77
2022/03/17 11:40:26;;;;;;;12.82;11.60;;;;;;;19.07;21.87;102036.44;2049717;96;25847;-77
2022/03/17 11:44:03;;;;;;;17.52;11.15;;;;;;;19.53;21.98;102042.79;2048956;95;25740;-77
2022/03/17 11:47:54;;;;;;;14.55;11.15;;;;;;;20.24;21.97;102032.62;2049757;95;25794;-78
2022/03/17 11:51:47;;;;;;;;;;;;;;;;;;;;;
2022/03/17 11:55:46;;;;;;;15.20;12.15;;;;;;;21.02;20.79;102048.34;2154194;91;25936;-76
2022/03/17 11:59:17;;;;;;;13.13;11.83;;;;;;;20.77;20.48;102045.95;2171229;89;26008;-73
2022/03/17 12:02:53;;;;;;;14.95;11.80;;;;;;;20.15;21.00;102038.73;2167242;91;25811;-80
2022/03/17 12:06:41;;;;;;;19.10;11.80;;;;;;;20.97;20.66;102027.10;2131220;91;25741;-75
2022/03/17 12:10:10;;;;;;;17.48;11.65;;;;;;;20.72;20.77;102024.69;2049092;93;25796;-76
2022/03/17 12:13:58;;;;;;;;;;;;;;;;;;;;;
2022/03/17 12:17:17;;;;;;;19.95;10.28;;;;;;;20.89;20.42;102034.09;2080085;94;25844;-74
2022/03/17 12:20:52;;;;;;;12.82;10.08;;;;;;;20.31;20.95;102029.59;2074848;95;25752;-75
2022/03/17 12:24:39;;;;;;;14.03;10.48;;;;;;;21.01;20.82;102027.56;2056462;95;25800;-75
2022/03/17 12:28:16;;;;;;;18.60;9.73;;;;;;;20.83;20.33;102029.66;2075203;93;26036;-76
2022/03/17 12:31:38;;;;;;;13.32;9.35;;;;;;;20.61;20.25;102027.25;2073025;92;25896;-75
2022/03/17 12:35:24;;;;;;;18.98;9.83;;;;;;;20.86;20.44;102034.10;2137308;91;25684;-77
2022/03/17 12:39:02;;;;;;;15.48;9.40;;;;;;;20.34;19.88;102056.12;2181318;89;25675;-76
2022/03/17 12:42:28;;;;;;;10.63;9.53;;;;;;;18.62;20.96;102029.93;2184393;89;25748;-76
2022/03/17 12:45:51;;;;;;;12.47;9.78;;;;;;;17.83;21.79;102041.24;2184460;89;25790;-76
2022/03/17 12:49:23;;;;;;;14.33;9.55;;;;;;;16.72;22.91;102028.58;2184815;89;25839;-75
2022/03/17 12:52:52;;;;;;;18.67;10.03;;;;;;;16.47;23.19;102025.77;2178343;89;26109;-74
2022/03/17 12:57:03;;;;;;;18.95;10.18;;;;;;;17.20;23.23;102023.59;2201536;86;26457;-74
2022/03/17 13:00:48;;;;;;;10.13;9.23;;;;;;;17.92;22.91;102039.69;2282844;86;25641;-75
2022/03/17 13:04:22;;;;;;;20.45;10.25;;;;;;;18.51;22.81;102031.08;2264268;86;25550;-75
2022/03/17 13:08:08;;;;;;;16.65;10.53;;;;;;;19.62;22.31;102038.95;2133040;90;25696;-76
2022/03/17 13:15:53;;;;;;;9.68;8.28;;;;;;;20.62;21.15;102022.43;2108118;92;25973;-76
2022/03/17 13:19:19;;;;;;;;;;;;;;;20.18;20.79;102032.14;2129656;91;25756;-76
2022/03/17 13:26:51;;;;;;;12.88;10.08;;;;;;;17.70;22.14;102022.48;2536428;76;25495;-74
2022/03/17 13:30:22;;;;;;;11.97;10.08;;;;;;;17.52;22.37;102029.14;2483884;78;25702;-77
2022/03/17 13:33:56;;;;;;;12.58;9.78;;;;;;;16.93;22.97;102033.50;2461912;78;25898;-75
2022/03/17 13:37:26;;;;;;;13.53;9.43;;;;;;;16.38;23.14;102036.05;2501157;78;25801;-75
2022/03/17 13:41:04;;;;;;;15.08;8.90;;;;;;;16.12;23.55;102045.86;2441455;78;25211;-74
2022/03/17 13:45:00;;;;;;;11.40;8.23;;;;;;;15.84;23.60;102029.32;2350058;81;26477;-74
2022/03/17 13:48:42;;;;;;;13.45;10.30;;;;;;;15.52;24.21;102030.97;2379609;81;25571;-76
2022/03/17 13:52:29;;;;;;;11.12;9.15;;;;;;;15.84;24.25;102037.64;2374987;80;25638;-75
2022/03/17 13:56:04;;;;;;;12.00;9.73;;;;;;;16.04;24.27;102029.45;2335251;83;26119;-75
2022/03/17 13:59:26;;;;;;;9.65;8.28;;;;;;;16.63;24.08;102023.95;2363358;82;25770;-74
2022/03/17 14:03:08;;;;;;;11.83;9.53;;;;;;;17.03;23.82;102030.23;2344419;83;26297;-74
2022/03/17 14:06:35;;;;;;;11.83;8.38;;;;;;;17.96;23.32;102023.91;2331267;83;25656;-74
2022/03/17 14:10:02;;;;;;;26.02;8.93;;;;;;;18.49;22.89;102018.70;2348286;83;25809;-74
2022/03/17 14:13:27;;;;;;;8.65;7.75;;;;;;;19.02;22.38;102022.24;2319933;84;25612;-73
2022/03/17 14:16:48;;;;;;;14.80;9.38;;;;;;;19.38;21.89;102035.55;2344125;83;26070;-73
2022/03/17 14:20:23;;;;;;;10.48;8.30;;;;;;;19.03;21.22;102023.13;2336079;82;26367;-74
2022/03/17 14:27:38;;;;;;;15.03;8.80;;;;;;;18.35;21.83;102022.42;2404039;79;25776;-77
2022/03/17 14:31:00;;;;;;;11.78;7.45;;;;;;;18.02;21.76;102028.88;2271934;84;25724;-75
2022/03/17 14:34:22;;;;;;;9.68;8.58;;;;;;;17.55;22.07;102022.18;2272538;86;25846;-74
2022/03/17 14:37:55;;;;;;;9.60;8.50;;;;;;;17.15;22.39;102021.73;2261612;85;25818;-75
2022/03/17 14:41:48;;;;;;;11.65;6.90;;;;;;;17.02;22.61;102021.87;2263594;85;26236;-88
2022/03/17 14:45:21;;;;;;;10.95;6.40;;;;;;;16.98;23.61;102016.95;2210647;85;25834;-89
2022/03/17 14:49:22;;;;;;;;;;;;;;;;;;;;;
2022/03/17 14:53:04;;;;;;;7.00;6.25;;;;;;;18.14;23.96;102023.81;2073676;92;25744;-85
2022/03/17 14:56:46;;;;;;;22.52;6.67;;;;;;;18.46;23.75;102014.68;2074819;93;25775;-89
2022/03/17 15:00:28;;;;;;;7.72;5.97;;;;;;;18.68;23.70;102014.19;2085015;90;26070;-90
2022/03/17 15:04:24;;;;;;;8.93;5.95;;;;;;;18.85;23.79;102018.02;2114421;89;26539;-89
2022/03/17 15:07:57;;;;;;;7.75;5.65;;;;;;;18.82;23.48;102020.61;2103020;91;25946;-88
2022/03/17 15:11:43;;;;;;;;;;;;;;;;;;;;;
2022/03/17 15:18:49;;;;;;;7.37;6.45;;;;;;;18.68;23.36;102023.88;2015033;96;25397;-89
2022/03/17 15:22:27;;;;;;;5.90;5.10;;;;;;;18.55;23.43;102026.30;2016405;95;26015;-87
2022/03/17 15:25:57;;;;;;;7.95;6.22;;;;;;;18.48;23.46;102029.70;2028524;94;26468;-90
2022/03/17 15:33:38;;;;;;;4.87;4.28;;;;;;;18.18;23.49;102032.24;1929804;99;25865;-90
2022/03/17 15:37:18;;;;;;;8.00;5.65;;;;;;;18.11;23.87;102033.42;1887054;102;25856;-88
2022/03/17 15:40:53;;;;;;;8.28;4.90;;;;;;;18.02;23.99;102046.44;1808523;106;26044;-88
2022/03/17 15:44:14;;;;;;;8.95;5.17;;;;;;;17.78;23.59;102044.20;1806541;106;25913;-86
2022/03/17 15:47:44;;;;;;;11.45;4.65;;;;;;;17.56;23.47;102041.53;1815725;101;26328;-86
2022/03/17 15:51:12;;;;;;;6.15;4.97;;;;;;;17.36;23.32;102042.41;1937687;97;26002;-85
2022/03/17 15:58:27;;;;;;;9.30;5.08;;;;;;;16.91;23.20;102047.08;1892635;102;26020;-86
2022/03/17 16:01:57;;;;;;;9.35;5.15;;;;;;;16.63;23.26;102050.72;1887207;102;25738;-87
2022/03/17 16:05:28;;;;;;;11.33;5.53;;;;;;;16.46;23.25;102055.55;1869052;102;25842;-86
2022/03/17 16:08:49;;;;;;;6.80;5.22;;;;;;;16.32;23.28;102056.94;1899743;99;25892;-85
2022/03/17 16:16:01;;;;;;;9.05;5.40;;;;;;;16.00;23.44;102060.91;1989543;95;25786;-86
2022/03/17 16:19:48;;;;;;;9.23;4.47;;;;;;;15.82;23.47;102077.03;1983976;96;26097;-85
2022/03/17 16:23:17;;;;;;;7.87;4.20;;;;;;;15.80;23.60;102078.73;1979991;97;25708;-85
2022/03/17 16:26:56;;;;;;;6.50;4.55;;;;;;;15.79;23.71;102082.19;1955921;99;25803;-85
2022/03/17 16:30:26;;;;;;;5.62;4.17;;;;;;;15.77;23.81;102087.85;1920673;99;25828;-84
2022/03/17 16:34:04;;;;;;;4.80;4.30;;;;;;;15.73;23.91;102084.67;1945952;99;25947;-86
2022/03/17 16:38:13;;;;;;;4.80;4.03;;;;;;;15.67;23.97;102083.16;1999679;94;26315;-85
2022/03/17 16:41:38;;;;;;;5.33;4.08;;;;;;;15.63;24.01;102086.52;1986808;98;25870;-84
2022/03/17 16:45:21;;;;;;;5.20;4.08;;;;;;;15.55;24.09;102092.41;1964733;97;25822;-85
2022/03/17 16:48:58;;;;;;;8.80;4.05;;;;;;;15.50;24.15;102095.77;1893859;100;25794;-84
2022/03/17 16:52:28;;;;;;;11.57;4.08;;;;;;;15.43;24.20;102096.42;1902273;101;25786;-85
2022/03/17 17:00:26;;;;;;;6.62;4.37;;;;;;;15.30;24.29;102099.08;1922939;100;26086;-85
2022/03/17 17:03:52;;;;;;;5.28;3.25;;;;;;;15.09;24.36;102079.16;1917607;100;26133;-84
2022/03/17 17:07:40;;;;;;;4.55;3.60;;;;;;;15.10;24.36;102090.13;1920606;100;25879;-86
2022/03/17 17:11:42;;;;;;;6.42;3.83;;;;;;;15.06;24.45;102100.50;1912278;99;25849;-85
2022/03/17 17:15:23;;;;;;;4.53;4.10;;;;;;;15.00;24.42;102126.14;1897765;102;25835;-84
2022/03/17 17:19:07;;;;;;;4.50;3.80;;;;;;;14.92;24.31;102111.87;1910433;101;25375;-85
2022/03/17 17:30:51;;;;;;;6.47;4.60;;;;;;;14.69;24.49;102113.70;1897938;103;26078;-86
2022/03/17 17:34:18;;;;;;;5.70;4.15;;;;;;;14.62;24.52;102123.53;1880108;102;25866;-85
2022/03/17 17:37:55;;;;;;;10.38;4.67;;;;;;;14.47;24.56;102096.70;1810112;106;26382;-86
2022/03/17 17:41:26;;;;;;;8.08;4.22;;;;;;;14.50;24.57;102121.35;1833871;106;25891;-84
2022/03/17 17:44:50;;;;;;;5.40;4.80;;;;;;;14.47;24.56;102134.33;1844226;104;26488;-85
2022/03/17 17:48:43;;;;;;;7.08;4.72;;;;;;;14.43;24.56;102136.80;1862789;104;26074;-85
2022/03/17 17:52:23;;;;;;;6.90;4.22;;;;;;;14.37;24.55;102142.71;1857300;104;26321;-84
2022/03/17 17:59:16;;;;;;;4.92;4.42;;;;;;;14.23;24.56;102145.25;1843309;105;26256;-85
2022/03/17 18:03:39;;;;;;;6.08;4.15;;;;;;;14.17;24.50;102151.16;1842021;106;25502;-86
2022/03/17 18:07:19;;;;;;;5.60;4.90;;;;;;;14.10;24.47;102152.66;1850161;105;25881;-85
2022/03/17 18:11:13;;;;;;;5.08;4.30;;;;;;;14.04;24.44;102158.09;1857255;102;26047;-85
2022/03/17 18:14:39;;;;;;;6.15;4.15;;;;;;;13.98;24.35;102159.20;1987926;94;25822;-87
2022/03/17 18:18:36;;;;;;;5.12;4.50;;;;;;;13.92;24.32;102165.09;2050040;93;25887;-84
2022/03/17 18:22:14;;;;;;;5.53;4.45;;;;;;;13.86;24.29;102163.11;2072910;93;25713;-85
2022/03/17 18:25:59;;;;;;;5.17;4.28;;;;;;;13.80;24.25;102169.84;1992274;96;25956;-86
2022/03/17 18:29:24;;;;;;;7.72;4.42;;;;;;;13.76;24.23;102175.39;2001886;95;26037;-84
2022/03/17 18:32:53;;;;;;;6.62;4.25;;;;;;;13.73;24.19;102179.62;1978226;95;25974;-86
2022/03/17 18:36:26;;;;;;;6.72;4.65;;;;;;;13.68;24.16;102179.45;1947977;98;25855;-85
2022/03/17 18:39:52;;;;;;;5.50;4.70;;;;;;;13.60;24.14;102177.84;1964371;98;25943;-85
2022/03/17 18:43:19;;;;;;;10.03;5.25;;;;;;;13.56;24.14;102174.59;1956339;99;25999;-86
2022/03/17 18:46:58;;;;;;;8.58;4.95;;;;;;;13.50;24.05;102186.17;1931413;99;26027;-86
2022/03/17 18:50:38;;;;;;;5.72;4.20;;;;;;;13.45;24.04;102193.82;1948927;100;26106;-86
2022/03/17 18:54:49;;;;;;;6.70;4.42;;;;;;;13.39;24.00;102192.67;1947741;99;25957;-86
2022/03/17 18:58:30;;;;;;;9.33;5.30;;;;;;;13.33;24.02;102189.41;1887557;103;25935;-86
2022/03/17 19:02:11;;;;;;;9.33;6.10;;;;;;;13.27;24.03;102185.64;1902122;102;26181;-85
2022/03/17 19:05:44;;;;;;;8.18;5.62;;;;;;;13.21;24.01;102188.86;1933612;98;25929;-84
2022/03/17 19:09:19;;;;;;;9.75;5.17;;;;;;;13.16;24.02;102192.98;1880518;103;25795;-84
2022/03/17 19:13:01;;;;;;;5.42;4.87;;;;;;;13.11;24.05;102203.28;1826206;105;26085;-84